Time;durP1;ratioP1;P1;durP2;ratioP2;P2;SDS_P1;SDS_P2;PMS_P1;PMS_P2;Temp;Humidity;BMP_temperature;BMP_pressure;BME280_temperature;BME280_humidity;BME280_pressure;Samples;Min_cycle;Max_cycle;Signal;HPM_P1;HPM_P2
2021/11/27 00:01:34;;;;;;;1.82;0.80;;;;;;;;;;1828405;76;26349;-28
2021/11/27 00:04:02;;;;;;;1.20;0.80;;;;;;;;;;1841333;76;26308;-30
2021/11/27 00:06:29;;;;;;;0.80;0.80;;;;;;;;;;1838297;77;26842;-28
2021/11/27 00:08:57;;;;;;;2.12;1.20;;;;;;;;;;1835757;76;26253;-28
2021/11/27 00:11:24;;;;;;;2.80;0.80;;;;;;;;;;1841659;76;26687;-28
2021/11/27 00:13:51;;;;;;;1.35;0.80;;;;;;;;;;1838166;76;26254;-28
2021/11/27 00:16:19;;;;;;;1.52;0.82;;;;;;;;;;1840619;76;26762;-29
2021/11/27 00:18:46;;;;;;;0.70;0.70;;;;;;;;;;1839311;76;26244;-29
2021/11/27 00:21:15;;;;;;;0.78;0.75;;;;;;;;;;1844423;75;26285;-28
2021/11/27 00:23:43;;;;;;;1.85;0.80;;;;;;;;;;1856869;75;26359;-29
2021/11/27 00:26:12;;;;;;;1.32;0.80;;;;;;;;;;1854618;75;26268;-28
2021/11/27 00:28:40;;;;;;;0.80;0.80;;;;;;;;;;1855650;75;26373;-30
2021/11/27 00:31:08;;;;;;;3.52;0.80;;;;;;;;;;1855925;75;26731;-29
2021/11/27 00:33:36;;;;;;;2.80;0.60;;;;;;;;;;1851310;75;26847;-29
2021/11/27 00:36:04;;;;;;;0.68;0.65;;;;;;;;;;1847679;75;26214;-29
2021/11/27 00:38:31;;;;;;;0.60;0.60;;;;;;;;;;1849139;75;26957;-28
2021/11/27 00:40:58;;;;;;;3.25;0.68;;;;;;;;;;1847860;75;26258;-29
2021/11/27 00:43:26;;;;;;;2.92;0.80;;;;;;;;;;1850917;75;26312;-28
2021/11/27 00:45:53;;;;;;;1.47;0.72;;;;;;;;;;1857822;75;26264;-30
2021/11/27 00:48:21;;;;;;;1.75;0.60;;;;;;;;;;1850483;75;26390;-28
2021/11/27 00:50:50;;;;;;;0.68;0.53;;;;;;;;;;1852771;75;26273;-28
2021/11/27 00:53:18;;;;;;;0.90;0.65;;;;;;;;;;1858509;76;26257;-29
2021/11/27 00:55:46;;;;;;;2.98;0.70;;;;;;;;;;1858477;77;26273;-29
2021/11/27 00:58:13;;;;;;;0.95;0.70;;;;;;;;;;1853751;76;26255;-29
2021/11/27 01:00:42;;;;;;;2.42;0.60;;;;;;;;;;1855581;75;26827;-28
2021/11/27 01:03:11;;;;;;;0.70;0.70;;;;;;;;;;1852385;77;26673;-28
2021/11/27 01:05:39;;;;;;;0.93;0.60;;;;;;;;;;1850078;77;26533;-28
2021/11/27 01:08:06;;;;;;;6.12;0.50;;;;;;;;;;1850171;76;26350;-28
2021/11/27 01:10:35;;;;;;;1.02;0.55;;;;;;;;;;1856919;75;26738;-28
2021/11/27 01:13:02;;;;;;;0.50;0.50;;;;;;;;;;1857680;77;26636;-29
2021/11/27 01:15:31;;;;;;;0.95;0.55;;;;;;;;;;1852375;76;26236;-29
2021/11/27 01:17:58;;;;;;;0.50;0.50;;;;;;;;;;1860197;75;26209;-29
2021/11/27 01:20:27;;;;;;;0.70;0.60;;;;;;;;;;1844581;75;26668;-29
2021/11/27 01:22:55;;;;;;;0.75;0.50;;;;;;;;;;1840663;76;26281;-28
2021/11/27 01:25:24;;;;;;;0.50;0.50;;;;;;;;;;1846658;76;26929;-29
2021/11/27 01:27:52;;;;;;;0.50;0.50;;;;;;;;;;1850293;76;26248;-29
2021/11/27 01:30:20;;;;;;;2.25;0.47;;;;;;;;;;1851182;76;26325;-28
2021/11/27 01:32:47;;;;;;;1.20;0.40;;;;;;;;;;1851859;76;26272;-29
2021/11/27 01:35:15;;;;;;;0.50;0.50;;;;;;;;;;1851536;76;26662;-28
2021/11/27 01:37:42;;;;;;;0.70;0.70;;;;;;;;;;1853095;76;26265;-28
2021/11/27 01:40:14;;;;;;;0.50;0.50;;;;;;;;;;1851946;76;26833;-28
2021/11/27 01:42:42;;;;;;;0.40;0.40;;;;;;;;;;1846580;76;26300;-28
2021/11/27 01:45:11;;;;;;;1.75;0.50;;;;;;;;;;1850387;76;26336;-28
2021/11/27 01:47:38;;;;;;;0.50;0.50;;;;;;;;;;1855647;76;26612;-28
2021/11/27 01:50:07;;;;;;;0.40;0.40;;;;;;;;;;1849327;76;26241;-28
2021/11/27 01:52:34;;;;;;;0.55;0.40;;;;;;;;;;1852661;76;26814;-29
2021/11/27 01:55:02;;;;;;;0.50;0.50;;;;;;;;;;1848110;76;26305;-29
2021/11/27 01:57:29;;;;;;;0.35;0.35;;;;;;;;;;1849539;76;26288;-29
2021/11/27 01:59:58;;;;;;;0.40;0.40;;;;;;;;;;1851613;76;26250;-28
2021/11/27 02:02:26;;;;;;;0.50;0.50;;;;;;;;;;1838282;77;26261;-28
2021/11/27 02:04:53;;;;;;;0.50;0.50;;;;;;;;;;1846920;76;26288;-29
2021/11/27 02:07:20;;;;;;;0.50;0.50;;;;;;;;;;1841716;77;26245;-29
2021/11/27 02:09:48;;;;;;;0.37;0.37;;;;;;;;;;1844015;76;27342;-28
2021/11/27 02:12:15;;;;;;;0.62;0.53;;;;;;;;;;1848046;76;26300;-29
2021/11/27 02:14:43;;;;;;;0.57;0.57;;;;;;;;;;1846915;76;26801;-28
2021/11/27 02:17:10;;;;;;;0.30;0.30;;;;;;;;;;1836234;76;26862;-29
2021/11/27 02:19:38;;;;;;;0.30;0.30;;;;;;;;;;1851621;76;26323;-30
2021/11/27 02:22:06;;;;;;;0.35;0.35;;;;;;;;;;1857154;75;26328;-29
2021/11/27 02:24:33;;;;;;;0.30;0.30;;;;;;;;;;1848467;75;26311;-30
2021/11/27 02:27:01;;;;;;;0.85;0.40;;;;;;;;;;1845360;75;26265;-28
2021/11/27 02:29:29;;;;;;;0.40;0.40;;;;;;;;;;1846284;75;25647;-28
2021/11/27 02:31:57;;;;;;;0.20;0.20;;;;;;;;;;1844064;75;26311;-28
2021/11/27 02:34:25;;;;;;;0.20;0.20;;;;;;;;;;1852733;77;26253;-28
2021/11/27 02:36:54;;;;;;;0.37;0.30;;;;;;;;;;1859436;75;26323;-29
2021/11/27 02:39:23;;;;;;;0.30;0.30;;;;;;;;;;1857598;76;26249;-28
2021/11/27 02:41:53;;;;;;;0.25;0.25;;;;;;;;;;1860254;76;26302;-28
2021/11/27 02:44:24;;;;;;;0.80;0.42;;;;;;;;;;1854593;75;26243;-29
2021/11/27 02:46:52;;;;;;;0.30;0.30;;;;;;;;;;1850720;76;26770;-29
2021/11/27 02:49:20;;;;;;;0.30;0.30;;;;;;;;;;1859114;75;26380;-29
2021/11/27 02:51:47;;;;;;;0.20;0.20;;;;;;;;;;1843413;77;26197;-29
2021/11/27 02:54:15;;;;;;;0.20;0.20;;;;;;;;;;1859563;75;26831;-28
2021/11/27 02:56:44;;;;;;;0.40;0.40;;;;;;;;;;1849426;77;26262;-28
2021/11/27 02:59:19;;;;;;;1.45;0.30;;;;;;;;;;1853817;75;26289;-28
2021/11/27 03:01:47;;;;;;;0.10;0.10;;;;;;;;;;1855141;75;26268;-28
2021/11/27 03:04:15;;;;;;;0.20;0.20;;;;;;;;;;1852344;75;27687;-29
2021/11/27 03:06:44;;;;;;;0.30;0.30;;;;;;;;;;1855206;76;26575;-29
2021/11/27 03:09:12;;;;;;;0.60;0.30;;;;;;;;;;1855983;75;26276;-28
2021/11/27 03:11:40;;;;;;;0.28;0.28;;;;;;;;;;1860653;76;26237;-29
2021/11/27 03:14:07;;;;;;;0.20;0.20;;;;;;;;;;1854840;75;26257;-29
2021/11/27 03:16:38;;;;;;;0.20;0.20;;;;;;;;;;1858183;77;26720;-29
2021/11/27 03:19:04;;;;;;;0.30;0.30;;;;;;;;;;1856818;76;26253;-28
2021/11/27 03:21:32;;;;;;;0.20;0.20;;;;;;;;;;1854037;77;26277;-28
2021/11/27 03:23:59;;;;;;;0.20;0.20;;;;;;;;;;1847189;76;26708;-28
2021/11/27 03:26:27;;;;;;;1.22;0.10;;;;;;;;;;1852376;77;26249;-29
2021/11/27 03:28:54;;;;;;;0.15;0.15;;;;;;;;;;1845110;76;26728;-28
2021/11/27 03:31:22;;;;;;;0.20;0.20;;;;;;;;;;1834120;76;26315;-28
2021/11/27 03:33:49;;;;;;;0.20;0.20;;;;;;;;;;1850552;76;26256;-28
2021/11/27 03:36:17;;;;;;;0.10;0.10;;;;;;;;;;1848180;76;26218;-28
2021/11/27 03:38:45;;;;;;;0.10;0.10;;;;;;;;;;1852977;77;26281;-28
2021/11/27 03:41:13;;;;;;;0.20;0.20;;;;;;;;;;1855927;76;26347;-28
2021/11/27 03:43:41;;;;;;;0.20;0.20;;;;;;;;;;1849491;77;26748;-29
2021/11/27 03:46:09;;;;;;;0.20;0.20;;;;;;;;;;1855518;77;26311;-29
2021/11/27 03:48:38;;;;;;;0.23;0.20;;;;;;;;;;1823201;77;26411;-28
2021/11/27 03:51:07;;;;;;;0.15;0.15;;;;;;;;;;1845530;76;26295;-28
2021/11/27 03:53:36;;;;;;;0.20;0.20;;;;;;;;;;1845017;76;26744;-28
2021/11/27 03:56:04;;;;;;;0.20;0.20;;;;;;;;;;1846852;76;26257;-28
2021/11/27 03:58:32;;;;;;;0.20;0.20;;;;;;;;;;1837119;76;26281;-30
2021/11/27 04:01:00;;;;;;;0.13;0.13;;;;;;;;;;1842115;76;26269;-29
2021/11/27 04:03:27;;;;;;;0.68;0.30;;;;;;;;;;1851505;77;26357;-28
2021/11/27 04:05:56;;;;;;;0.78;0.30;;;;;;;;;;1850848;76;26326;-29
2021/11/27 04:08:24;;;;;;;0.20;0.20;;;;;;;;;;1842424;76;27367;-28
2021/11/27 04:10:52;;;;;;;0.10;0.10;;;;;;;;;;1848849;76;26301;-28
2021/11/27 04:13:20;;;;;;;0.80;0.30;;;;;;;;;;1843340;77;26556;-28
2021/11/27 04:15:47;;;;;;;0.20;0.20;;;;;;;;;;1852959;76;26366;-29
2021/11/27 04:18:15;;;;;;;0.30;0.30;;;;;;;;;;1839387;76;26350;-28
2021/11/27 04:20:43;;;;;;;1.98;0.20;;;;;;;;;;1853024;76;26276;-30
2021/11/27 04:23:11;;;;;;;0.00;0.00;;;;;;;;;;1850401;75;26284;-29
2021/11/27 04:25:38;;;;;;;0.20;0.20;;;;;;;;;;1860593;76;26277;-28
2021/11/27 04:28:06;;;;;;;0.20;0.20;;;;;;;;;;1860451;76;26846;-28
2021/11/27 04:30:33;;;;;;;0.10;0.10;;;;;;;;;;1857176;77;26330;-28
2021/11/27 04:33:01;;;;;;;0.28;0.20;;;;;;;;;;1862715;75;27722;-29
2021/11/27 04:35:29;;;;;;;0.20;0.20;;;;;;;;;;1858833;75;26284;-28
2021/11/27 04:37:57;;;;;;;0.20;0.20;;;;;;;;;;1858389;77;26319;-29
2021/11/27 04:40:25;;;;;;;0.10;0.10;;;;;;;;;;1845953;75;26713;-29
2021/11/27 04:42:52;;;;;;;0.10;0.10;;;;;;;;;;1859355;77;26311;-28
2021/11/27 04:45:20;;;;;;;0.10;0.10;;;;;;;;;;1854160;75;26778;-28
2021/11/27 04:47:48;;;;;;;0.10;0.10;;;;;;;;;;1858339;75;26381;-28
2021/11/27 04:50:15;;;;;;;0.20;0.20;;;;;;;;;;1855150;75;26820;-28
2021/11/27 04:52:43;;;;;;;0.13;0.13;;;;;;;;;;1858223;76;26300;-29
2021/11/27 04:55:11;;;;;;;0.08;0.08;;;;;;;;;;1852351;77;26323;-29
2021/11/27 04:57:38;;;;;;;0.10;0.10;;;;;;;;;;1851329;77;26303;-28
2021/11/27 05:00:07;;;;;;;0.20;0.20;;;;;;;;;;1848413;76;25663;-28
2021/11/27 05:02:34;;;;;;;0.10;0.10;;;;;;;;;;1854883;75;26827;-28
2021/11/27 05:05:02;;;;;;;0.17;0.17;;;;;;;;;;1852711;75;26818;-28
2021/11/27 05:07:29;;;;;;;0.10;0.10;;;;;;;;;;1847971;77;26320;-29
2021/11/27 05:09:58;;;;;;;0.05;0.05;;;;;;;;;;1854045;75;26342;-30
2021/11/27 05:12:26;;;;;;;0.10;0.10;;;;;;;;;;1853878;75;26315;-29
2021/11/27 05:14:53;;;;;;;0.03;0.03;;;;;;;;;;1858813;77;26335;-29
2021/11/27 05:17:20;;;;;;;0.20;0.20;;;;;;;;;;1853125;75;26311;-28
2021/11/27 05:19:48;;;;;;;0.10;0.10;;;;;;;;;;1860991;77;26256;-28
2021/11/27 05:22:15;;;;;;;0.23;0.23;;;;;;;;;;1855998;75;26351;-29
2021/11/27 05:24:47;;;;;;;0.10;0.10;;;;;;;;;;1843144;77;26747;-29
2021/11/27 05:27:16;;;;;;;0.10;0.10;;;;;;;;;;1843734;77;27728;-28
2021/11/27 05:29:43;;;;;;;0.28;0.20;;;;;;;;;;1842392;76;26245;-28
2021/11/27 05:32:21;;;;;;;0.20;0.20;;;;;;;;;;1839581;76;26386;-28
2021/11/27 05:34:40;;;;;;;0.10;0.10;;;;;;;;;;1830513;76;26274;-28
2021/11/27 05:37:08;;;;;;;0.30;0.30;;;;;;;;;;1835380;76;26218;-29
2021/11/27 05:39:35;;;;;;;0.17;0.17;;;;;;;;;;1840729;76;26250;-29
2021/11/27 05:42:02;;;;;;;0.20;0.20;;;;;;;;;;1839087;77;26316;-30
2021/11/27 05:44:30;;;;;;;0.13;0.13;;;;;;;;;;1843797;77;26697;-28
2021/11/27 05:46:57;;;;;;;0.10;0.10;;;;;;;;;;1837890;77;26261;-28
2021/11/27 05:49:24;;;;;;;0.20;0.20;;;;;;;;;;1843706;77;26262;-28
2021/11/27 05:51:52;;;;;;;0.10;0.10;;;;;;;;;;1846662;76;26262;-28
2021/11/27 05:54:19;;;;;;;0.00;0.00;;;;;;;;;;1831846;77;26709;-28
2021/11/27 05:56:46;;;;;;;0.10;0.10;;;;;;;;;;1822567;77;26270;-28
2021/11/27 05:59:14;;;;;;;0.23;0.20;;;;;;;;;;1843062;76;26257;-30
2021/11/27 06:01:41;;;;;;;0.20;0.20;;;;;;;;;;1841576;77;26253;-29
2021/11/27 06:04:09;;;;;;;0.10;0.10;;;;;;;;;;1840394;77;26309;-28
2021/11/27 06:06:36;;;;;;;0.20;0.20;;;;;;;;;;1838306;77;26772;-28
2021/11/27 06:09:04;;;;;;;0.17;0.17;;;;;;;;;;1843869;76;26274;-28
2021/11/27 06:11:31;;;;;;;0.10;0.10;;;;;;;;;;1837437;77;26787;-29
2021/11/27 06:13:58;;;;;;;0.20;0.20;;;;;;;;;;1836232;76;26358;-28
2021/11/27 06:16:26;;;;;;;0.10;0.10;;;;;;;;;;1844242;77;26261;-29
2021/11/27 06:18:53;;;;;;;0.10;0.10;;;;;;;;;;1839114;76;26218;-29
2021/11/27 06:21:23;;;;;;;0.20;0.20;;;;;;;;;;1838662;76;26726;-28
2021/11/27 06:23:54;;;;;;;0.10;0.10;;;;;;;;;;1840805;76;26756;-28
2021/11/27 06:26:21;;;;;;;0.10;0.10;;;;;;;;;;1833839;77;26331;-27
2021/11/27 06:28:48;;;;;;;0.20;0.20;;;;;;;;;;1837830;77;26306;-28
2021/11/27 06:31:16;;;;;;;0.20;0.20;;;;;;;;;;1833928;76;26386;-28
2021/11/27 06:33:44;;;;;;;0.10;0.10;;;;;;;;;;1843190;76;26309;-28
2021/11/27 06:36:11;;;;;;;0.47;0.20;;;;;;;;;;1832239;76;26273;-29
2021/11/27 06:38:39;;;;;;;1.27;0.30;;;;;;;;;;1830405;76;26351;-28
2021/11/27 06:41:06;;;;;;;0.30;0.20;;;;;;;;;;1846872;77;26832;-28
2021/11/27 06:43:33;;;;;;;2.22;0.30;;;;;;;;;;1837039;76;26261;-28
2021/11/27 06:46:01;;;;;;;0.53;0.28;;;;;;;;;;1847400;76;26210;-29
2021/11/27 06:48:29;;;;;;;2.20;0.40;;;;;;;;;;1827768;76;26265;-29
2021/11/27 06:50:56;;;;;;;1.40;0.40;;;;;;;;;;1843285;76;26331;-28
2021/11/27 06:53:23;;;;;;;0.55;0.28;;;;;;;;;;1840396;76;26309;-28
2021/11/27 06:55:51;;;;;;;0.20;0.20;;;;;;;;;;1842777;76;26336;-28
2021/11/27 06:58:18;;;;;;;0.90;0.30;;;;;;;;;;1833494;76;26834;-29
2021/11/27 07:00:46;;;;;;;1.75;0.40;;;;;;;;;;1840901;76;26278;-28
2021/11/27 07:03:13;;;;;;;1.50;0.40;;;;;;;;;;1848898;76;26250;-29
2021/11/27 07:05:40;;;;;;;0.50;0.20;;;;;;;;;;1836924;76;26194;-28
2021/11/27 07:08:08;;;;;;;0.95;0.30;;;;;;;;;;1842736;76;26343;-28
2021/11/27 07:10:36;;;;;;;0.62;0.33;;;;;;;;;;1844641;76;26542;-28
2021/11/27 07:13:03;;;;;;;0.57;0.28;;;;;;;;;;1840231;76;26273;-28
2021/11/27 07:15:31;;;;;;;0.40;0.40;;;;;;;;;;1834510;76;26266;-27
2021/11/27 07:17:58;;;;;;;0.28;0.28;;;;;;;;;;1843429;76;26352;-28
2021/11/27 07:20:25;;;;;;;0.30;0.20;;;;;;;;;;1840817;76;26257;-28
2021/11/27 07:22:52;;;;;;;1.75;0.35;;;;;;;;;;1836164;76;26276;-30
2021/11/27 07:25:20;;;;;;;0.30;0.30;;;;;;;;;;1827153;76;26376;-28
2021/11/27 07:27:47;;;;;;;1.80;0.30;;;;;;;;;;1831796;76;26284;-28
2021/11/27 07:30:15;;;;;;;0.25;0.25;;;;;;;;;;1833474;76;26269;-28
2021/11/27 07:32:42;;;;;;;0.70;0.40;;;;;;;;;;1838406;76;26811;-28
2021/11/27 07:35:09;;;;;;;0.30;0.30;;;;;;;;;;1839957;76;26371;-27
2021/11/27 07:37:37;;;;;;;1.37;0.40;;;;;;;;;;1833242;76;26282;-28
2021/11/27 07:40:05;;;;;;;1.45;0.50;;;;;;;;;;1835107;76;26725;-28
2021/11/27 07:42:32;;;;;;;1.27;0.40;;;;;;;;;;1841215;76;26870;-28
2021/11/27 07:44:59;;;;;;;1.12;0.53;;;;;;;;;;1843329;76;26265;-28
2021/11/27 07:47:27;;;;;;;0.30;0.30;;;;;;;;;;1843685;76;26342;-28
2021/11/27 07:49:54;;;;;;;4.47;0.60;;;;;;;;;;1839956;76;26756;-28
2021/11/27 07:52:21;;;;;;;1.98;0.62;;;;;;;;;;1841497;76;26265;-28
2021/11/27 07:54:50;;;;;;;1.32;0.60;;;;;;;;;;1837754;76;26285;-27
2021/11/27 07:57:17;;;;;;;1.65;0.50;;;;;;;;;;1827979;76;26301;-28
2021/11/27 07:59:44;;;;;;;2.47;0.80;;;;;;;;;;1839695;76;26850;-27
2021/11/27 08:02:12;;;;;;;1.95;0.50;;;;;;;;;;1838618;76;26269;-28
2021/11/27 08:04:40;;;;;;;1.42;0.47;;;;;;;;;;1834813;76;26402;-28
2021/11/27 08:07:07;;;;;;;0.55;0.50;;;;;;;;;;1837244;76;26374;-28
2021/11/27 08:09:34;;;;;;;1.65;0.57;;;;;;;;;;1833897;76;26340;-28
2021/11/27 08:12:02;;;;;;;1.15;0.45;;;;;;;;;;1836479;76;26266;-28
2021/11/27 08:14:34;;;;;;;3.37;0.53;;;;;;;;;;1844555;76;26641;-29
2021/11/27 08:16:59;;;;;;;1.85;0.60;;;;;;;;;;1844899;76;26748;-28
2021/11/27 08:19:30;;;;;;;1.75;0.70;;;;;;;;;;1838075;76;26847;-29
2021/11/27 08:21:57;;;;;;;2.20;0.55;;;;;;;;;;1829834;76;26342;-29
2021/11/27 08:24:26;;;;;;;0.40;0.40;;;;;;;;;;1840505;75;26336;-28
2021/11/27 08:26:54;;;;;;;2.00;0.55;;;;;;;;;;1858765;75;26335;-29
2021/11/27 08:29:21;;;;;;;2.12;0.50;;;;;;;;;;1845958;75;26679;-28
2021/11/27 08:31:49;;;;;;;2.92;0.50;;;;;;;;;;1843871;75;26276;-29
2021/11/27 08:34:16;;;;;;;2.85;0.70;;;;;;;;;;1862142;77;26253;-28
2021/11/27 08:36:44;;;;;;;3.15;0.90;;;;;;;;;;1858613;75;26827;-28
2021/11/27 08:39:11;;;;;;;2.92;0.82;;;;;;;;;;1858474;75;26299;-28
2021/11/27 08:41:39;;;;;;;4.30;1.00;;;;;;;;;;1858902;75;26756;-28
2021/11/27 08:44:06;;;;;;;2.35;1.27;;;;;;;;;;1857698;75;26250;-29
2021/11/27 08:46:34;;;;;;;13.25;1.30;;;;;;;;;;1851991;77;26796;-28
2021/11/27 08:49:01;;;;;;;8.20;1.40;;;;;;;;;;1862831;76;26241;-27
2021/11/27 08:51:28;;;;;;;2.02;1.40;;;;;;;;;;1851172;75;26339;-28
2021/11/27 08:53:56;;;;;;;2.35;1.20;;;;;;;;;;1851287;75;26363;-28
2021/11/27 08:56:24;;;;;;;1.72;1.42;;;;;;;;;;1851791;75;26543;-29
2021/11/27 08:58:51;;;;;;;2.87;1.60;;;;;;;;;;1855427;75;26265;-29
2021/11/27 09:01:18;;;;;;;1.95;1.70;;;;;;;;;;1848863;75;27802;-28
2021/11/27 09:03:47;;;;;;;1.92;1.75;;;;;;;;;;1854126;75;26245;-28
2021/11/27 09:06:15;;;;;;;5.50;1.65;;;;;;;;;;1851056;75;26611;-29
2021/11/27 09:08:43;;;;;;;1.60;1.50;;;;;;;;;;1853604;75;26909;-28
2021/11/27 09:11:12;;;;;;;2.83;1.72;;;;;;;;;;1848983;75;26350;-29
2021/11/27 09:13:40;;;;;;;2.42;1.50;;;;;;;;;;1846918;75;26315;-29
2021/11/27 09:16:08;;;;;;;2.02;1.72;;;;;;;;;;1860794;77;26260;-29
2021/11/27 09:18:36;;;;;;;2.35;1.82;;;;;;;;;;1857158;75;27468;-29
2021/11/27 09:21:03;;;;;;;1.82;1.60;;;;;;;;;;1854154;76;26288;-28
2021/11/27 09:23:31;;;;;;;1.70;1.60;;;;;;;;;;1852215;75;26766;-29
2021/11/27 09:25:58;;;;;;;2.02;1.62;;;;;;;;;;1841483;76;26398;-28
2021/11/27 09:28:26;;;;;;;3.12;2.10;;;;;;;;;;1854015;76;26298;-29
2021/11/27 09:30:53;;;;;;;4.30;2.30;;;;;;;;;;1834989;76;26209;-29
2021/11/27 09:33:21;;;;;;;5.58;2.80;;;;;;;;;;1843516;76;26946;-28
2021/11/27 09:36:03;;;;;;;3.87;2.83;;;;;;;;;;1841227;77;26319;-28
2021/11/27 09:38:30;;;;;;;4.08;2.95;;;;;;;;;;1838465;76;26749;-28
2021/11/27 09:40:59;;;;;;;6.62;3.02;;;;;;;;;;1852336;77;26250;-28
2021/11/27 09:43:27;;;;;;;5.65;3.10;;;;;;;;;;1838687;77;26296;-28
2021/11/27 09:45:55;;;;;;;9.23;3.55;;;;;;;;;;1850273;77;27604;-29
2021/11/27 09:48:23;;;;;;;5.17;3.58;;;;;;;;;;1852348;76;26260;-29
2021/11/27 09:50:52;;;;;;;6.80;3.58;;;;;;;;;;1853770;77;27494;-29
2021/11/27 09:53:21;;;;;;;6.75;3.60;;;;;;;;;;1850296;76;26722;-29
2021/11/27 09:55:48;;;;;;;7.62;3.40;;;;;;;;;;1851449;76;26736;-28
2021/11/27 09:58:16;;;;;;;6.03;3.25;;;;;;;;;;1848114;76;26293;-29
2021/11/27 10:00:43;;;;;;;5.37;3.02;;;;;;;;;;1846776;76;26268;-28
2021/11/27 10:03:11;;;;;;;7.83;3.25;;;;;;;;;;1837011;76;26261;-28
2021/11/27 10:05:39;;;;;;;7.28;3.00;;;;;;;;;;1851556;76;26354;-28
2021/11/27 10:08:06;;;;;;;5.80;3.60;;;;;;;;;;1850974;76;26792;-28
2021/11/27 10:10:33;;;;;;;5.30;3.17;;;;;;;;;;1851991;76;26253;-28
2021/11/27 10:13:01;;;;;;;3.77;3.02;;;;;;;;;;1849085;76;26264;-28
2021/11/27 10:15:29;;;;;;;3.67;2.92;;;;;;;;;;1849786;76;26321;-29
2021/11/27 10:17:56;;;;;;;5.08;2.85;;;;;;;;;;1855289;76;26355;-29
2021/11/27 10:20:24;;;;;;;4.45;2.87;;;;;;;;;;1852319;76;26272;-28
2021/11/27 10:22:52;;;;;;;5.00;2.80;;;;;;;;;;1850846;76;26299;-28
2021/11/27 10:25:24;;;;;;;5.25;3.10;;;;;;;;;;1852539;76;26371;-28
2021/11/27 10:27:52;;;;;;;5.92;2.58;;;;;;;;;;1841444;77;26285;-28
2021/11/27 10:30:20;;;;;;;4.53;2.55;;;;;;;;;;1830349;77;26296;-28
2021/11/27 10:32:48;;;;;;;4.58;2.87;;;;;;;;;;1831543;76;26266;-29
2021/11/27 10:35:17;;;;;;;5.95;2.70;;;;;;;;;;1841380;76;27392;-29
2021/11/27 10:37:46;;;;;;;3.37;2.35;;;;;;;;;;1843040;77;26286;-29
2021/11/27 10:40:15;;;;;;;4.67;2.10;;;;;;;;;;1838888;76;26293;-28
2021/11/27 10:42:44;;;;;;;4.42;2.20;;;;;;;;;;1830016;76;26297;-28
2021/11/27 10:45:16;;;;;;;2.33;1.87;;;;;;;;;;1835788;76;26381;-28
2021/11/27 10:47:44;;;;;;;1.87;1.70;;;;;;;;;;1846044;76;26325;-29
2021/11/27 10:50:17;;;;;;;2.85;1.80;;;;;;;;;;1831218;76;26278;-29
2021/11/27 10:52:41;;;;;;;3.55;1.90;;;;;;;;;;1839830;76;26281;-28
2021/11/27 10:55:16;;;;;;;2.22;1.87;;;;;;;;;;1847253;77;26319;-29
2021/11/27 10:57:44;;;;;;;2.05;1.85;;;;;;;;;;1843319;76;26688;-29
2021/11/27 11:00:13;;;;;;;1.82;1.67;;;;;;;;;;1822593;77;26553;-28
2021/11/27 11:02:40;;;;;;;3.05;1.52;;;;;;;;;;1840410;76;26706;-29
2021/11/27 11:05:14;;;;;;;1.65;1.50;;;;;;;;;;1838989;76;26332;-28
2021/11/27 11:07:42;;;;;;;1.55;1.47;;;;;;;;;;1831708;76;26301;-29
2021/11/27 11:10:14;;;;;;;1.10;1.10;;;;;;;;;;1832667;76;26756;-28
2021/11/27 11:12:46;;;;;;;1.40;1.30;;;;;;;;;;1833857;76;27391;-28
2021/11/27 11:15:17;;;;;;;1.30;1.20;;;;;;;;;;1835662;76;26835;-28
2021/11/27 11:17:45;;;;;;;2.55;1.20;;;;;;;;;;1840026;76;26270;-29
2021/11/27 11:20:18;;;;;;;1.30;1.20;;;;;;;;;;1841615;76;26234;-29
2021/11/27 11:22:46;;;;;;;1.30;1.20;;;;;;;;;;1841463;76;26556;-28
2021/11/27 11:25:14;;;;;;;1.45;1.10;;;;;;;;;;1843691;76;26258;-29
2021/11/27 11:27:42;;;;;;;2.00;1.20;;;;;;;;;;1847302;76;26309;-29
2021/11/27 11:30:12;;;;;;;2.08;1.07;;;;;;;;;;1849627;76;26293;-29
2021/11/27 11:32:39;;;;;;;1.40;1.30;;;;;;;;;;1844249;76;26268;-28
2021/11/27 11:35:08;;;;;;;1.05;1.05;;;;;;;;;;1855676;76;26359;-29
2021/11/27 11:37:36;;;;;;;1.10;1.10;;;;;;;;;;1845619;76;26253;-29
2021/11/27 11:40:04;;;;;;;0.85;0.85;;;;;;;;;;1851834;76;26214;-28
2021/11/27 11:42:32;;;;;;;1.30;1.20;;;;;;;;;;1855267;76;26689;-29
2021/11/27 11:44:59;;;;;;;1.30;1.05;;;;;;;;;;1846320;76;26337;-29
2021/11/27 11:47:27;;;;;;;1.12;1.05;;;;;;;;;;1840683;76;26330;-28
2021/11/27 11:49:55;;;;;;;0.95;0.95;;;;;;;;;;1845068;76;26343;-28
2021/11/27 11:52:27;;;;;;;1.00;1.00;;;;;;;;;;1852475;76;26327;-28
2021/11/27 11:55:00;;;;;;;1.32;1.00;;;;;;;;;;1843089;76;26300;-29
2021/11/27 11:57:44;;;;;;;1.12;0.82;;;;;;;;;;1848199;76;26708;-28
2021/11/27 12:00:28;;;;;;;0.82;0.82;;;;;;;;;;1853383;76;26415;-29
2021/11/27 12:03:09;;;;;;;0.95;0.82;;;;;;;;;;1853090;76;26299;-28
2021/11/27 12:05:38;;;;;;;1.85;0.80;;;;;;;;;;1852533;76;26752;-29
2021/11/27 12:08:06;;;;;;;0.72;0.72;;;;;;;;;;1845677;76;26772;-27
2021/11/27 12:10:41;;;;;;;0.70;0.70;;;;;;;;;;1843088;76;26847;-28
2021/11/27 12:13:10;;;;;;;0.78;0.78;;;;;;;;;;1849946;76;26269;-27
2021/11/27 12:15:39;;;;;;;0.70;0.70;;;;;;;;;;1855431;76;26380;-29
2021/11/27 12:18:15;;;;;;;1.15;0.90;;;;;;;;;;1846818;76;26292;-28
2021/11/27 12:20:43;;;;;;;0.50;0.50;;;;;;;;;;1849374;76;27332;-28
2021/11/27 12:23:12;;;;;;;0.60;0.60;;;;;;;;;;1846428;76;26902;-28
2021/11/27 12:25:40;;;;;;;0.60;0.60;;;;;;;;;;1830240;76;26674;-28
2021/11/27 12:28:09;;;;;;;1.98;0.70;;;;;;;;;;1840648;76;26281;-29
2021/11/27 12:30:44;;;;;;;1.17;0.80;;;;;;;;;;1843148;76;26914;-32
2021/11/27 12:33:29;;;;;;;0.65;0.65;;;;;;;;;;1840486;76;26250;-29
2021/11/27 12:35:56;;;;;;;1.27;0.50;;;;;;;;;;1841998;76;26260;-31
2021/11/27 12:38:31;;;;;;;0.78;0.78;;;;;;;;;;1844988;76;26250;-30
2021/11/27 12:40:59;;;;;;;0.40;0.40;;;;;;;;;;1844193;76;26277;-30
2021/11/27 12:43:27;;;;;;;0.62;0.62;;;;;;;;;;1843343;76;26274;-30
2021/11/27 12:46:00;;;;;;;1.55;0.70;;;;;;;;;;1833704;76;28058;-26
2021/11/27 12:48:29;;;;;;;1.75;0.80;;;;;;;;;;1842708;76;26508;-26
2021/11/27 12:51:15;;;;;;;0.47;0.47;;;;;;;;;;1836205;76;26272;-31
2021/11/27 12:54:03;;;;;;;0.50;0.50;;;;;;;;;;1842143;76;26313;-30
2021/11/27 12:56:49;;;;;;;0.60;0.60;;;;;;;;;;1843336;76;26215;-30
2021/11/27 12:59:18;;;;;;;0.50;0.50;;;;;;;;;;1849067;76;27607;-29
2021/11/27 13:01:46;;;;;;;0.50;0.50;;;;;;;;;;1842802;76;26744;-30
2021/11/27 13:04:14;;;;;;;0.62;0.60;;;;;;;;;;1847233;76;26285;-30
2021/11/27 13:06:42;;;;;;;0.50;0.50;;;;;;;;;;1846240;76;26234;-33
2021/11/27 13:09:11;;;;;;;0.40;0.40;;;;;;;;;;1838030;76;26264;-29
2021/11/27 13:11:44;;;;;;;1.25;0.57;;;;;;;;;;1848631;76;26325;-30
2021/11/27 13:14:24;;;;;;;1.75;0.57;;;;;;;;;;1849780;76;26292;-29
2021/11/27 13:16:53;;;;;;;1.85;0.50;;;;;;;;;;1840109;76;28434;-27
2021/11/27 13:19:30;;;;;;;2.33;0.60;;;;;;;;;;1842953;76;26308;-27
2021/11/27 13:22:08;;;;;;;0.45;0.45;;;;;;;;;;1845067;76;26238;-27
2021/11/27 13:24:37;;;;;;;0.40;0.40;;;;;;;;;;1848268;76;26304;-29
2021/11/27 13:27:07;;;;;;;0.40;0.40;;;;;;;;;;1851404;75;26839;-37
2021/11/27 13:29:34;;;;;;;0.78;0.40;;;;;;;;;;1858703;75;26242;-37
2021/11/27 13:32:02;;;;;;;0.40;0.40;;;;;;;;;;1854345;75;26210;-32
2021/11/27 13:34:29;;;;;;;1.50;0.50;;;;;;;;;;1854101;75;26272;-31
2021/11/27 13:36:57;;;;;;;0.45;0.45;;;;;;;;;;1855867;75;26813;-30
2021/11/27 13:39:26;;;;;;;0.40;0.40;;;;;;;;;;1842072;76;26923;-31
2021/11/27 13:42:07;;;;;;;1.07;0.40;;;;;;;;;;1858214;75;26736;-31
2021/11/27 13:44:37;;;;;;;0.47;0.47;;;;;;;;;;1859820;77;26303;-30
2021/11/27 13:47:06;;;;;;;0.40;0.40;;;;;;;;;;1861602;75;26374;-33
2021/11/27 13:49:35;;;;;;;0.50;0.50;;;;;;;;;;1862352;75;26293;-31
2021/11/27 13:52:04;;;;;;;0.33;0.33;;;;;;;;;;1858734;75;26690;-31
2021/11/27 13:54:33;;;;;;;0.30;0.30;;;;;;;;;;1853578;77;26319;-30
2021/11/27 13:57:01;;;;;;;0.28;0.28;;;;;;;;;;1851713;75;27476;-32
2021/11/27 13:59:32;;;;;;;0.40;0.40;;;;;;;;;;1842678;76;26744;-33
2021/11/27 14:02:01;;;;;;;0.30;0.30;;;;;;;;;;1852555;77;26949;-33
2021/11/27 14:04:29;;;;;;;0.35;0.35;;;;;;;;;;1851162;75;26280;-30
2021/11/27 14:07:04;;;;;;;0.50;0.30;;;;;;;;;;1858501;75;26229;-30
2021/11/27 14:09:52;;;;;;;0.40;0.40;;;;;;;;;;1855792;76;26280;-29
2021/11/27 14:12:35;;;;;;;0.40;0.40;;;;;;;;;;1854124;75;26320;-29
2021/11/27 14:15:06;;;;;;;0.30;0.30;;;;;;;;;;1856931;75;26285;-34
2021/11/27 14:17:33;;;;;;;0.40;0.40;;;;;;;;;;1860138;75;26253;-30
2021/11/27 14:20:08;;;;;;;1.05;0.40;;;;;;;;;;1855750;75;26279;-29
2021/11/27 14:22:35;;;;;;;0.50;0.40;;;;;;;;;;1857728;75;26330;-29
2021/11/27 14:25:10;;;;;;;0.30;0.30;;;;;;;;;;1858413;75;26202;-29
2021/11/27 14:27:48;;;;;;;3.22;0.50;;;;;;;;;;1857635;75;26269;-29
2021/11/27 14:30:18;;;;;;;0.70;0.47;;;;;;;;;;1853436;75;26253;-29
2021/11/27 14:32:46;;;;;;;0.50;0.47;;;;;;;;;;1861489;75;26755;-28
2021/11/27 14:35:27;;;;;;;0.30;0.30;;;;;;;;;;1849475;75;26641;-29
2021/11/27 14:37:54;;;;;;;1.00;0.42;;;;;;;;;;1856859;75;26646;-29
2021/11/27 14:40:22;;;;;;;0.35;0.35;;;;;;;;;;1859635;75;26868;-29
2021/11/27 14:42:49;;;;;;;2.62;0.60;;;;;;;;;;1855097;75;26268;-28
2021/11/27 14:45:18;;;;;;;2.02;0.50;;;;;;;;;;1855966;75;27470;-29
2021/11/27 14:47:46;;;;;;;3.58;0.53;;;;;;;;;;1859858;75;26241;-29
2021/11/27 14:50:17;;;;;;;2.55;0.60;;;;;;;;;;1865113;75;26294;-28
2021/11/27 14:52:49;;;;;;;3.87;0.70;;;;;;;;;;1854945;75;27308;-28